Time;durP1;ratioP1;P1;durP2;ratioP2;P2;SDS_P1;SDS_P2;PMS_P1;PMS_P2;Temp;Humidity;BMP_temperature;BMP_pressure;BME280_temperature;BME280_humidity;BME280_pressure;Samples;Min_cycle;Max_cycle;Signal;HPM_P1;HPM_P2
2023/12/16 00:00:31;;;;;;;15.90;6.18;;;;;;;6.79;97.91;103867.69;5034967;28;20028;-56
2023/12/16 00:02:56;;;;;;;17.73;5.63;;;;;;;6.79;97.48;103861.56;5037354;28;20097;-57
2023/12/16 00:05:22;;;;;;;15.68;5.57;;;;;;;6.79;96.94;103870.34;5032635;28;20449;-57
2023/12/16 00:07:47;;;;;;;15.27;5.70;;;;;;;6.79;97.50;103867.69;5030443;28;20080;-58
2023/12/16 00:10:13;;;;;;;21.05;6.70;;;;;;;6.79;97.48;103862.41;5033530;28;20029;-58
2023/12/16 00:12:38;;;;;;;20.33;5.63;;;;;;;6.79;97.09;103870.34;5031132;28;20104;-57
2023/12/16 00:15:04;;;;;;;20.85;6.05;;;;;;;6.79;97.11;103869.47;5032979;28;20032;-58
2023/12/16 00:17:30;;;;;;;19.10;5.63;;;;;;;6.79;97.09;103870.34;5033655;28;20445;-58
2023/12/16 00:19:55;;;;;;;15.57;5.85;;;;;;;6.79;96.62;103870.34;5031797;28;20017;-58
2023/12/16 00:22:20;;;;;;;23.00;6.05;;;;;;;6.80;97.60;103868.59;5031959;28;20029;-57
2023/12/16 00:24:46;;;;;;;15.95;5.10;;;;;;;6.80;97.51;103865.97;5031489;28;20013;-58
2023/12/16 00:27:11;;;;;;;20.60;6.57;;;;;;;6.78;97.60;103860.69;5029317;28;20063;-57
2023/12/16 00:29:36;;;;;;;17.42;5.95;;;;;;;6.78;96.40;103860.69;5036060;28;20030;-57
2023/12/16 00:32:02;;;;;;;14.40;5.85;;;;;;;6.78;97.23;103862.47;5035166;28;20029;-57
2023/12/16 00:34:27;;;;;;;13.98;5.18;;;;;;;6.76;96.98;103854.56;5031267;28;20033;-58
2023/12/16 00:36:54;;;;;;;17.15;4.88;;;;;;;6.76;96.18;103854.56;5031269;28;20067;-56
2023/12/16 00:39:19;;;;;;;12.73;4.78;;;;;;;6.76;96.60;103856.31;5034311;28;20052;-57
2023/12/16 00:41:44;;;;;;;19.30;5.50;;;;;;;6.76;96.83;103846.63;5028398;28;20060;-57
2023/12/16 00:44:10;;;;;;;14.93;5.20;;;;;;;6.76;96.26;103848.38;5035561;28;20033;-58
2023/12/16 00:46:35;;;;;;;14.60;5.45;;;;;;;6.75;96.39;103844.00;5033275;28;20044;-58
2023/12/16 00:49:00;;;;;;;17.35;5.18;;;;;;;6.74;96.11;103840.47;5034115;28;20497;-57
2023/12/16 00:51:25;;;;;;;15.13;4.93;;;;;;;6.74;96.84;103843.09;5032302;28;20075;-58
2023/12/16 00:53:51;;;;;;;15.77;5.20;;;;;;;6.74;96.83;103845.75;5034920;28;20018;-58
2023/12/16 00:56:16;;;;;;;15.93;5.10;;;;;;;6.73;95.80;103845.78;5029247;28;20121;-57
2023/12/16 00:58:41;;;;;;;16.27;5.55;;;;;;;6.73;96.12;103854.59;5030703;28;20104;-56
2023/12/16 01:01:07;;;;;;;15.55;4.93;;;;;;;6.73;96.40;103849.31;5032973;28;20121;-57
2023/12/16 01:03:34;;;;;;;15.40;4.90;;;;;;;6.72;96.52;103841.41;5031732;28;20041;-58
2023/12/16 01:06:00;;;;;;;17.25;5.35;;;;;;;6.72;96.34;103844.91;5033026;28;20101;-57
2023/12/16 01:08:25;;;;;;;12.68;4.50;;;;;;;6.72;96.67;103846.69;5033762;28;20120;-54
2023/12/16 01:10:50;;;;;;;15.20;4.82;;;;;;;6.72;96.63;103852.81;5030897;28;20041;-57
2023/12/16 01:13:16;;;;;;;12.90;4.88;;;;;;;6.72;96.09;103854.59;5034628;28;20040;-56
2023/12/16 01:15:41;;;;;;;15.45;5.03;;;;;;;6.71;96.30;103858.13;5034109;28;20067;-56
2023/12/16 01:18:07;;;;;;;15.02;4.32;;;;;;;6.72;96.75;103857.25;5033444;28;20025;-55
2023/12/16 01:20:33;;;;;;;12.95;4.82;;;;;;;6.71;96.65;103853.75;5032791;28;20060;-55
2023/12/16 01:22:58;;;;;;;16.00;5.30;;;;;;;6.71;96.52;103850.19;5029472;28;20415;-56
2023/12/16 01:25:23;;;;;;;14.40;4.63;;;;;;;6.72;96.08;103844.91;5035192;28;20466;-56
2023/12/16 01:27:49;;;;;;;18.85;5.43;;;;;;;6.71;96.65;103850.19;5033354;28;20116;-54
2023/12/16 01:30:14;;;;;;;18.80;4.90;;;;;;;6.72;96.04;103849.31;5031004;28;20036;-56
2023/12/16 01:32:39;;;;;;;14.10;4.63;;;;;;;6.71;95.54;103856.38;5034412;28;20156;-58
2023/12/16 01:35:05;;;;;;;16.63;5.00;;;;;;;6.71;96.38;103847.56;5031644;28;20025;-57
2023/12/16 01:37:30;;;;;;;18.05;5.15;;;;;;;6.71;96.32;103843.19;5031995;28;20095;-57
2023/12/16 01:39:55;;;;;;;17.70;4.90;;;;;;;6.70;96.49;103838.78;5031858;28;20048;-56
2023/12/16 01:42:20;;;;;;;12.23;4.60;;;;;;;6.72;96.04;103833.47;5031299;28;20029;-56
2023/12/16 01:44:46;;;;;;;12.38;4.28;;;;;;;6.70;95.83;103836.13;5030686;28;20482;-56
2023/12/16 01:47:11;;;;;;;20.52;4.68;;;;;;;6.69;96.43;103831.72;5030382;28;20116;-56
2023/12/16 01:49:37;;;;;;;16.35;4.82;;;;;;;6.71;96.45;103831.72;5030443;28;20029;-57
2023/12/16 01:52:04;;;;;;;15.27;4.70;;;;;;;6.70;95.82;103837.91;5033116;28;20021;-56
2023/12/16 01:54:31;;;;;;;19.00;4.90;;;;;;;6.69;96.13;103844.06;5035754;28;20418;-57
2023/12/16 01:56:58;;;;;;;13.05;4.57;;;;;;;6.68;95.88;103837.91;5036537;28;20215;-57
2023/12/16 01:59:25;;;;;;;13.57;4.30;;;;;;;6.66;95.47;103835.31;5038885;28;20029;-57
2023/12/16 02:01:51;;;;;;;13.35;4.25;;;;;;;6.69;95.36;103844.06;5036271;28;20021;-57
2023/12/16 02:04:18;;;;;;;14.82;4.45;;;;;;;6.67;95.04;103844.94;5035991;28;20029;-56
2023/12/16 02:06:43;;;;;;;12.82;4.80;;;;;;;6.70;95.21;103841.41;5037779;28;20068;-56
2023/12/16 02:09:09;;;;;;;14.38;4.53;;;;;;;6.70;95.40;103838.78;5038335;28;20029;-57
2023/12/16 02:11:34;;;;;;;16.05;4.07;;;;;;;6.71;94.99;103837.00;5033189;28;20486;-57
2023/12/16 02:13:59;;;;;;;15.50;4.38;;;;;;;6.71;94.88;103840.53;5034733;28;20041;-57
2023/12/16 02:16:25;;;;;;;15.35;4.90;;;;;;;6.71;94.34;103839.63;5034721;28;20025;-57
2023/12/16 02:18:51;;;;;;;13.48;4.70;;;;;;;6.71;94.47;103839.63;5038029;28;20121;-57
2023/12/16 02:21:16;;;;;;;13.02;4.43;;;;;;;6.70;94.13;103837.91;5030885;28;20040;-57
2023/12/16 02:23:41;;;;;;;13.75;4.90;;;;;;;6.67;94.34;103841.44;5035260;28;20022;-56
2023/12/16 02:26:07;;;;;;;14.35;4.50;;;;;;;6.65;94.77;103837.97;5017679;28;20040;-57
2023/12/16 02:28:33;;;;;;;15.75;5.32;;;;;;;6.64;94.50;103833.56;5033650;28;20057;-57
2023/12/16 02:30:58;;;;;;;15.95;4.85;;;;;;;6.61;94.46;103833.59;5034969;28;20467;-57
2023/12/16 02:33:23;;;;;;;14.23;5.18;;;;;;;6.57;94.79;103831.88;5034421;28;20029;-57
2023/12/16 02:35:48;;;;;;;14.98;4.30;;;;;;;6.53;93.91;103831.06;5035467;28;20029;-56
2023/12/16 02:38:14;;;;;;;14.15;4.43;;;;;;;6.51;94.14;103826.66;5032504;28;20028;-57
2023/12/16 02:40:42;;;;;;;13.48;4.63;;;;;;;6.48;94.38;103831.09;5036194;28;20025;-58
2023/12/16 02:43:08;;;;;;;15.82;5.10;;;;;;;6.45;94.27;103838.19;5039053;28;20029;-57
2023/12/16 02:45:34;;;;;;;13.90;5.15;;;;;;;6.41;94.54;103847.00;5035359;28;20097;-57
2023/12/16 02:47:59;;;;;;;19.10;5.35;;;;;;;6.40;94.83;103858.50;5034819;28;20033;-57
2023/12/16 02:50:24;;;;;;;12.07;4.57;;;;;;;6.38;94.90;103855.84;5035154;28;20026;-57
2023/12/16 02:52:49;;;;;;;14.00;5.03;;;;;;;6.36;95.00;103860.28;5036453;28;20321;-58
2023/12/16 02:55:17;;;;;;;15.45;5.00;;;;;;;6.35;95.38;103858.53;5029935;28;20121;-57
2023/12/16 02:57:42;;;;;;;17.33;4.90;;;;;;;6.31;94.95;103848.88;5032145;28;20052;-57
2023/12/16 03:00:08;;;;;;;16.65;5.10;;;;;;;6.29;95.38;103850.66;5034314;28;20119;-57
2023/12/16 03:02:33;;;;;;;17.23;5.35;;;;;;;6.30;95.64;103841.88;5033166;28;20029;-57
2023/12/16 03:04:59;;;;;;;12.20;4.57;;;;;;;6.27;95.46;103837.47;5034171;28;20013;-57
2023/12/16 03:07:24;;;;;;;17.73;5.32;;;;;;;6.25;96.48;103836.63;5033972;28;20456;-57
2023/12/16 03:09:49;;;;;;;17.38;5.38;;;;;;;6.24;95.68;103840.13;5031750;28;20022;-58
2023/12/16 03:12:15;;;;;;;13.48;4.60;;;;;;;6.22;95.77;103839.28;4993495;28;1065504;-57
2023/12/16 03:14:41;;;;;;;13.85;5.10;;;;;;;6.20;96.00;103827.03;5033574;28;20379;-57
2023/12/16 03:17:07;;;;;;;15.35;5.25;;;;;;;6.19;96.01;103834.03;5034204;28;20075;-57
2023/12/16 03:19:32;;;;;;;21.98;6.68;;;;;;;6.16;95.96;103826.19;5034093;28;20029;-55
2023/12/16 03:21:57;;;;;;;16.30;5.10;;;;;;;6.14;96.49;103837.63;5033115;28;20028;-58
2023/12/16 03:24:23;;;;;;;18.92;5.63;;;;;;;6.12;96.68;103829.72;5018008;28;20383;-58
2023/12/16 03:26:48;;;;;;;17.30;4.93;;;;;;;6.13;96.52;103835.88;5034405;28;20061;-58
2023/12/16 03:29:13;;;;;;;21.90;4.90;;;;;;;6.10;96.93;103836.78;5033848;28;20092;-58
2023/12/16 03:31:39;;;;;;;19.25;5.30;;;;;;;6.10;97.04;103831.50;5033044;28;20039;-57
2023/12/16 03:34:04;;;;;;;17.02;5.55;;;;;;;6.11;97.19;103835.88;5034598;28;20030;-56
2023/12/16 03:36:29;;;;;;;14.05;4.90;;;;;;;6.10;97.04;103836.78;5032780;28;20033;-57
2023/12/16 03:38:56;;;;;;;13.60;5.18;;;;;;;6.08;97.32;103836.78;5031202;28;20028;-57
2023/12/16 03:41:21;;;;;;;20.63;5.35;;;;;;;6.08;96.89;103838.56;5033092;28;20026;-56
2023/12/16 03:43:46;;;;;;;16.05;5.20;;;;;;;6.10;97.15;103839.41;5032963;28;20025;-57
2023/12/16 03:46:12;;;;;;;17.85;5.47;;;;;;;6.08;97.85;103836.78;5033351;28;20075;-58
2023/12/16 03:48:37;;;;;;;15.18;5.10;;;;;;;6.09;98.03;103838.53;5033608;28;20398;-57
2023/12/16 03:51:03;;;;;;;14.82;5.47;;;;;;;6.11;98.41;103843.78;5033273;28;20021;-58
2023/12/16 03:53:28;;;;;;;18.58;6.07;;;;;;;6.10;97.92;103840.28;5035197;28;20022;-57
2023/12/16 03:55:54;;;;;;;18.25;5.70;;;;;;;6.11;98.17;103841.16;5034704;28;20027;-55
2023/12/16 03:58:19;;;;;;;12.90;5.35;;;;;;;6.12;98.09;103842.91;5032979;28;20053;-56
2023/12/16 04:00:44;;;;;;;16.13;5.18;;;;;;;6.15;98.08;103842.03;5032074;28;20029;-54
2023/12/16 04:03:09;;;;;;;17.77;5.82;;;;;;;6.14;98.63;103838.50;5031515;28;20029;-56
2023/12/16 04:05:35;;;;;;;16.35;5.45;;;;;;;6.15;98.26;103834.97;5033680;28;20033;-56
2023/12/16 04:08:01;;;;;;;16.63;5.45;;;;;;;6.16;98.83;103838.47;5035903;28;20029;-56
2023/12/16 04:10:26;;;;;;;15.98;5.00;;;;;;;6.18;98.70;103847.25;5031770;28;20013;-57
2023/12/16 04:12:51;;;;;;;21.00;5.35;;;;;;;6.20;98.83;103854.28;5032604;28;20108;-57
2023/12/16 04:15:16;;;;;;;18.30;5.18;;;;;;;6.22;99.48;103854.25;5029455;28;20482;-54
2023/12/16 04:17:42;;;;;;;16.35;4.85;;;;;;;6.22;98.90;103855.13;5033469;28;20033;-58
2023/12/16 04:20:07;;;;;;;17.90;5.20;;;;;;;6.23;99.55;103850.75;5031655;28;20031;-57
2023/12/16 04:22:33;;;;;;;19.13;5.60;;;;;;;6.24;99.23;103840.13;5032430;28;20039;-58
2023/12/16 04:24:58;;;;;;;20.52;6.07;;;;;;;6.24;99.40;103834.88;5033305;28;20017;-57
2023/12/16 04:27:27;;;;;;;17.13;5.65;;;;;;;6.27;99.66;103836.63;5029310;28;20100;-57
2023/12/16 04:29:52;;;;;;;15.40;4.97;;;;;;;6.26;99.47;103835.75;5033735;28;20037;-57
2023/12/16 04:32:18;;;;;;;15.65;5.15;;;;;;;6.27;99.48;103839.25;5032655;28;20033;-58
2023/12/16 04:34:43;;;;;;;15.32;5.45;;;;;;;6.28;99.38;103839.25;5031575;28;20345;-56
2023/12/16 04:37:10;;;;;;;16.20;6.05;;;;;;;6.28;99.71;103839.25;5031311;28;20036;-57
2023/12/16 04:39:36;;;;;;;14.65;5.18;;;;;;;6.28;99.66;103836.59;5032389;28;20037;-58
2023/12/16 04:42:01;;;;;;;17.75;5.30;;;;;;;6.28;99.92;103841.00;5032894;28;20033;-57
2023/12/16 04:44:26;;;;;;;17.85;4.88;;;;;;;6.25;99.92;103831.34;5018217;28;20013;-58
2023/12/16 04:46:52;;;;;;;19.30;5.47;;;;;;;6.25;99.94;103823.44;5031837;28;20079;-58
2023/12/16 04:49:17;;;;;;;18.75;4.78;;;;;;;6.23;100.00;103819.06;5033091;28;20018;-57
2023/12/16 04:51:42;;;;;;;19.98;5.45;;;;;;;6.22;100.00;103831.38;5030268;28;20053;-56
2023/12/16 04:54:07;;;;;;;20.20;5.10;;;;;;;6.22;100.00;103822.59;5031795;28;20533;-58
2023/12/16 04:56:33;;;;;;;18.98;5.20;;;;;;;6.21;100.00;103826.09;5032232;28;20025;-57
2023/12/16 04:58:58;;;;;;;16.45;5.13;;;;;;;6.20;100.00;103825.25;5032641;28;20017;-58
2023/12/16 05:01:23;;;;;;;15.07;5.00;;;;;;;6.17;100.00;103824.41;5029561;28;20033;-58
2023/12/16 05:03:49;;;;;;;16.13;5.18;;;;;;;6.15;100.00;103828.84;5030482;28;20079;-58
2023/12/16 05:06:14;;;;;;;18.35;5.07;;;;;;;6.15;100.00;103828.84;5032237;28;20041;-58
2023/12/16 05:08:39;;;;;;;22.45;5.45;;;;;;;6.12;100.00;103824.44;5034743;28;20055;-57
2023/12/16 05:11:05;;;;;;;16.63;5.07;;;;;;;6.09;100.00;103825.34;5012419;28;20103;-58
2023/12/16 05:13:30;;;;;;;18.38;5.18;;;;;;;6.08;100.00;103830.66;5033095;28;20067;-57
2023/12/16 05:15:55;;;;;;;14.25;4.72;;;;;;;6.04;100.00;103827.16;5031272;28;20439;-56
2023/12/16 05:18:20;;;;;;;15.50;5.40;;;;;;;6.02;100.00;103822.78;5033157;28;20458;-58
2023/12/16 05:20:46;;;;;;;19.45;4.93;;;;;;;6.01;100.00;103835.13;5032532;28;20025;-58
2023/12/16 05:23:11;;;;;;;17.52;5.30;;;;;;;5.99;100.00;103834.22;5031777;28;20740;-58
2023/12/16 05:25:39;;;;;;;18.73;5.10;;;;;;;5.95;100.00;103836.91;5032629;28;20086;-58
2023/12/16 05:28:05;;;;;;;18.80;5.53;;;;;;;5.92;100.00;103837.78;5031601;28;20207;-58
2023/12/16 05:30:30;;;;;;;15.75;4.85;;;;;;;5.90;100.00;103845.72;5032475;28;20041;-57
2023/12/16 05:32:56;;;;;;;13.30;4.90;;;;;;;5.88;100.00;103836.09;5030258;28;20028;-58
2023/12/16 05:35:21;;;;;;;21.25;4.95;;;;;;;5.86;100.00;103844.00;5030210;28;20373;-58
2023/12/16 05:37:47;;;;;;;20.42;5.32;;;;;;;5.84;100.00;103837.84;5032476;28;20036;-57
2023/12/16 05:40:12;;;;;;;18.00;5.32;;;;;;;5.81;100.00;103835.25;5031359;28;20041;-58
2023/12/16 05:42:39;;;;;;;20.92;5.45;;;;;;;5.79;100.00;103844.91;5030516;28;20025;-58
2023/12/16 05:45:05;;;;;;;15.40;5.00;;;;;;;5.78;100.00;103844.94;5034976;28;20028;-56
2023/12/16 05:47:30;;;;;;;21.95;5.53;;;;;;;5.76;100.00;103847.56;5030772;28;20406;-57
2023/12/16 05:49:55;;;;;;;18.30;5.70;;;;;;;5.74;100.00;103846.72;5033185;28;20028;-57
2023/12/16 05:52:21;;;;;;;15.43;5.07;;;;;;;5.72;100.00;103843.22;5031381;28;20108;-60
2023/12/16 05:54:47;;;;;;;14.43;5.13;;;;;;;5.70;100.00;103839.75;5032128;28;20029;-57
2023/12/16 05:57:12;;;;;;;21.42;5.80;;;;;;;5.69;100.00;103830.94;5034317;28;20017;-57
2023/12/16 05:59:37;;;;;;;18.77;6.30;;;;;;;5.70;100.00;103837.97;5006699;28;20030;-56
2023/12/16 06:02:03;;;;;;;17.25;5.07;;;;;;;5.68;100.00;103837.13;5035008;28;20486;-56
2023/12/16 06:04:29;;;;;;;18.30;5.03;;;;;;;5.69;100.00;103822.16;5032177;28;20167;-56
2023/12/16 06:06:54;;;;;;;19.80;5.68;;;;;;;5.68;100.00;103823.03;5032790;28;20056;-57
2023/12/16 06:09:20;;;;;;;16.80;5.03;;;;;;;5.66;100.00;103828.34;5033627;28;20026;-57
2023/12/16 06:11:45;;;;;;;15.90;4.57;;;;;;;5.67;100.00;103829.22;5032036;28;20372;-55
2023/12/16 06:14:10;;;;;;;26.23;5.93;;;;;;;5.66;100.00;103843.28;5035403;28;20028;-57
2023/12/16 06:16:35;;;;;;;19.65;5.03;;;;;;;5.67;100.00;103845.91;5029992;28;20022;-53
2023/12/16 06:19:02;;;;;;;17.83;5.82;;;;;;;5.66;100.00;103851.19;5032136;28;20506;-56
2023/12/16 06:21:29;;;;;;;20.73;5.57;;;;;;;5.64;100.00;103847.69;5034134;28;20124;-56
2023/12/16 06:23:55;;;;;;;15.15;4.95;;;;;;;5.63;100.00;103845.94;5029202;28;20429;-56
2023/12/16 06:26:20;;;;;;;18.10;5.43;;;;;;;5.64;100.00;103847.69;5031721;28;20021;-56
2023/12/16 06:28:45;;;;;;;17.38;5.60;;;;;;;5.62;100.00;103842.41;5029546;28;20057;-57
2023/12/16 06:31:18;;;;;;;16.90;4.75;;;;;;;5.69;100.00;103835.34;5029212;28;20079;-56
2023/12/16 06:33:44;;;;;;;19.38;5.15;;;;;;;5.62;100.00;103836.28;5027584;28;20486;-54
2023/12/16 06:36:09;;;;;;;16.13;5.05;;;;;;;5.61;100.00;103831.88;5030324;28;20082;-53
2023/12/16 06:38:34;;;;;;;18.05;5.30;;;;;;;5.62;100.00;103842.41;5026364;28;20026;-57
2023/12/16 06:41:00;;;;;;;19.40;5.70;;;;;;;5.61;100.00;103839.78;5034238;28;20022;-56
2023/12/16 06:43:26;;;;;;;15.40;5.07;;;;;;;5.61;100.00;103837.16;5038010;28;20637;-56
2023/12/16 06:45:51;;;;;;;15.90;5.15;;;;;;;5.61;100.00;103829.25;5036409;28;20029;-57
2023/12/16 06:48:16;;;;;;;14.88;5.40;;;;;;;5.61;100.00;103829.25;5031093;28;20032;-55
2023/12/16 06:50:41;;;;;;;12.15;4.55;;;;;;;5.61;100.00;103835.38;5034336;28;20088;-58
2023/12/16 06:53:07;;;;;;;19.85;5.03;;;;;;;5.61;100.00;103839.78;5032477;28;20048;-53
2023/12/16 06:55:32;;;;;;;17.70;4.93;;;;;;;5.60;100.00;103832.78;5013870;28;20385;-56
2023/12/16 06:57:57;;;;;;;17.80;5.10;;;;;;;5.59;100.00;103836.31;5034318;28;20029;-55
2023/12/16 07:00:22;;;;;;;19.00;5.70;;;;;;;5.60;100.00;103846.84;5033756;28;20022;-56
2023/12/16 07:02:48;;;;;;;14.40;4.35;;;;;;;5.57;100.00;103850.34;5034640;28;20459;-53
2023/12/16 07:05:13;;;;;;;15.82;4.80;;;;;;;5.58;100.00;103845.97;5029080;28;20025;-55
2023/12/16 07:07:38;;;;;;;13.63;4.97;;;;;;;5.59;100.00;103841.56;5033551;28;20029;-57
2023/12/16 07:10:06;;;;;;;15.10;5.40;;;;;;;5.57;100.00;103847.72;5032527;28;20135;-54
2023/12/16 07:12:31;;;;;;;18.08;5.03;;;;;;;5.57;100.00;103846.84;5031243;28;20049;-56
2023/12/16 07:14:56;;;;;;;21.77;5.18;;;;;;;5.57;100.00;103852.13;5030338;28;20504;-56
2023/12/16 07:17:21;;;;;;;14.23;4.47;;;;;;;5.54;100.00;103850.38;5015544;28;20041;-56
2023/12/16 07:19:47;;;;;;;15.95;5.20;;;;;;;5.54;100.00;103860.06;5034864;28;20533;-58
2023/12/16 07:22:16;;;;;;;21.58;5.15;;;;;;;5.52;100.00;103856.56;5035729;28;20026;-57
2023/12/16 07:24:41;;;;;;;17.55;5.28;;;;;;;5.50;100.00;103853.06;5031854;28;20486;-57
2023/12/16 07:27:06;;;;;;;18.55;4.68;;;;;;;5.47;100.00;103851.31;5033660;28;20033;-59
2023/12/16 07:29:35;;;;;;;11.98;4.22;;;;;;;5.45;100.00;103863.63;5032209;28;20025;-59
2023/12/16 07:32:01;;;;;;;17.23;4.75;;;;;;;5.42;100.00;103863.66;5033985;28;20033;-57
2023/12/16 07:34:27;;;;;;;12.40;4.00;;;;;;;5.35;100.00;103864.59;5032518;28;20084;-56
2023/12/16 07:36:52;;;;;;;12.88;4.30;;;;;;;5.32;100.00;103870.75;5034567;28;20025;-59
2023/12/16 07:39:18;;;;;;;17.40;4.80;;;;;;;5.28;100.00;103871.66;5033446;28;20033;-58
2023/12/16 07:41:43;;;;;;;13.90;4.57;;;;;;;5.23;100.00;103875.19;5032622;28;20036;-57
2023/12/16 07:44:08;;;;;;;18.55;4.70;;;;;;;5.17;100.00;103876.97;5033141;28;20037;-59
2023/12/16 07:46:34;;;;;;;17.10;4.70;;;;;;;5.14;100.00;103882.25;5031011;28;20025;-58
2023/12/16 07:48:59;;;;;;;22.92;5.10;;;;;;;5.09;100.00;103877.91;5034452;28;20018;-58
2023/12/16 07:51:25;;;;;;;14.65;4.97;;;;;;;5.06;100.00;103881.41;5033535;28;20033;-59
2023/12/16 07:53:51;;;;;;;20.73;5.10;;;;;;;5.01;100.00;103870.00;5031863;28;20091;-58
2023/12/16 07:56:21;;;;;;;15.73;4.57;;;;;;;5.00;100.00;103877.06;5032402;28;20026;-57
2023/12/16 07:58:46;;;;;;;14.93;4.68;;;;;;;4.99;100.00;103871.78;5034200;28;20061;-57
2023/12/16 08:01:14;;;;;;;15.95;4.70;;;;;;;4.98;100.00;103873.56;5034117;28;20110;-58
2023/12/16 08:03:39;;;;;;;16.02;4.63;;;;;;;4.97;100.00;103869.16;5041061;28;20378;-58
2023/12/16 08:06:05;;;;;;;22.60;5.50;;;;;;;4.96;100.00;103877.97;5037439;28;20028;-57
2023/12/16 08:08:30;;;;;;;18.80;4.95;;;;;;;4.99;100.00;103877.91;5035258;28;20040;-58
2023/12/16 08:10:55;;;;;;;17.67;4.80;;;;;;;4.99;100.00;103879.69;5036610;28;20132;-59
2023/12/16 08:13:20;;;;;;;17.52;4.68;;;;;;;5.00;100.00;103889.34;5038599;28;20391;-59
2023/12/16 08:15:46;;;;;;;20.38;4.43;;;;;;;5.00;100.00;103899.91;5038765;28;20120;-59
2023/12/16 08:18:12;;;;;;;16.30;4.82;;;;;;;5.00;100.00;103898.13;5039263;28;20026;-58
2023/12/16 08:20:37;;;;;;;17.45;4.45;;;;;;;5.01;100.00;103896.34;5039672;28;20145;-59
2023/12/16 08:23:05;;;;;;;14.98;4.35;;;;;;;5.04;100.00;103906.88;5040575;28;20182;-59
2023/12/16 08:25:30;;;;;;;22.83;4.95;;;;;;;5.05;100.00;103900.75;5039006;28;20022;-58
2023/12/16 08:27:56;;;;;;;19.25;4.22;;;;;;;5.06;100.00;103902.47;5039283;28;20402;-59
2023/12/16 08:30:21;;;;;;;20.52;5.45;;;;;;;5.09;100.00;103906.88;5037952;28;20037;-59
2023/12/16 08:32:46;;;;;;;15.75;4.35;;;;;;;5.11;100.00;103911.28;5037271;28;20025;-58
2023/12/16 08:35:14;;;;;;;23.05;5.10;;;;;;;5.15;100.00;103909.50;5033471;28;20121;-59
2023/12/16 08:37:40;;;;;;;13.57;4.22;;;;;;;5.20;100.00;103905.06;5033815;28;20026;-59
2023/12/16 08:40:06;;;;;;;17.58;4.50;;;;;;;5.26;100.00;103912.06;5033852;28;20025;-59
2023/12/16 08:42:31;;;;;;;15.07;4.63;;;;;;;5.30;100.00;103911.19;5036240;28;20104;-59
2023/12/16 08:44:57;;;;;;;20.73;5.53;;;;;;;5.37;100.00;103907.63;5035251;28;20021;-58
2023/12/16 08:47:22;;;;;;;21.85;4.97;;;;;;;5.42;100.00;103900.56;5036198;28;20025;-59
2023/12/16 08:49:48;;;;;;;19.48;4.72;;;;;;;5.48;100.00;103902.28;5031958;28;20430;-59
2023/12/16 08:52:13;;;;;;;21.05;4.60;;;;;;;5.51;100.00;103900.53;5039826;28;20029;-59
2023/12/16 08:54:39;;;;;;;14.57;4.82;;;;;;;5.56;100.00;103901.38;5014059;28;20029;-59
2023/12/16 08:57:04;;;;;;;16.70;4.82;;;;;;;5.62;100.00;103897.78;5031245;28;20091;-59
2023/12/16 08:59:30;;;;;;;19.02;4.88;;;;;;;5.66;100.00;103896.00;5036054;28;20036;-59
2023/12/16 09:01:55;;;;;;;17.10;5.00;;;;;;;5.70;100.00;103893.34;5037643;28;20318;-59
2023/12/16 09:04:20;;;;;;;15.75;4.28;;;;;;;5.74;100.00;103881.91;5033253;28;20036;-59
2023/12/16 09:06:46;;;;;;;20.73;4.57;;;;;;;5.78;100.00;103888.03;5034542;28;20183;-59
2023/12/16 09:09:11;;;;;;;22.52;5.57;;;;;;;5.82;100.00;103902.06;5033603;28;20040;-59
2023/12/16 09:11:37;;;;;;;18.45;4.90;;;;;;;5.87;100.00;103913.47;5030602;28;20053;-59
2023/12/16 09:14:04;;;;;;;23.15;5.25;;;;;;;5.91;100.00;103917.81;5023741;28;20029;-59
2023/12/16 09:16:29;;;;;;;18.48;4.85;;;;;;;5.95;100.00;103916.03;5028290;28;20485;-58
2023/12/16 09:18:55;;;;;;;17.15;4.43;;;;;;;6.00;100.00;103916.91;5025250;28;20029;-59
2023/12/16 09:21:20;;;;;;;19.10;4.90;;;;;;;6.02;100.00;103901.94;5031815;28;20053;-59
2023/12/16 09:23:47;;;;;;;19.08;5.65;;;;;;;6.06;100.00;103912.47;5034662;28;20470;-58
2023/12/16 09:26:13;;;;;;;19.48;4.63;;;;;;;6.11;100.00;103918.59;5038961;28;20021;-59
2023/12/16 09:28:38;;;;;;;19.58;5.00;;;;;;;6.16;100.00;103915.91;5031909;28;20112;-59
2023/12/16 09:31:04;;;;;;;22.67;5.72;;;;;;;6.20;100.00;103917.63;5032337;28;20105;-59
2023/12/16 09:33:29;;;;;;;20.60;5.70;;;;;;;6.25;100.00;103922.88;5033896;28;20033;-59
2023/12/16 09:35:54;;;;;;;16.20;4.90;;;;;;;6.30;100.00;103923.69;5031947;28;20441;-60
2023/12/16 09:38:20;;;;;;;18.50;5.28;;;;;;;6.34;100.00;103927.19;5027690;28;20032;-59
2023/12/16 09:40:45;;;;;;;14.57;5.32;;;;;;;6.39;100.00;103935.94;5032279;28;20453;-58
2023/12/16 09:43:20;;;;;;;16.70;4.95;;;;;;;6.43;100.00;103935.88;5036403;28;20423;-59
2023/12/16 09:45:49;;;;;;;20.88;5.53;;;;;;;6.47;100.00;103934.09;5036994;28;20112;-59
2023/12/16 09:48:16;;;;;;;17.20;5.18;;;;;;;6.52;100.00;103920.84;5033271;28;20444;-59
2023/12/16 09:50:42;;;;;;;20.83;5.43;;;;;;;6.57;100.00;103929.59;5037008;28;20053;-59
2023/12/16 09:53:07;;;;;;;19.27;5.57;;;;;;;6.60;100.00;103933.09;5030812;28;20075;-59
2023/12/16 09:55:32;;;;;;;18.30;5.28;;;;;;;6.65;100.00;103943.59;5032865;28;20033;-59
2023/12/16 09:57:59;;;;;;;23.60;6.18;;;;;;;6.69;100.00;103931.22;5028339;28;20462;-59
2023/12/16 10:00:28;;;;;;;19.52;5.72;;;;;;;6.73;100.00;103936.47;5033797;28;20037;-59
2023/12/16 10:02:56;;;;;;;14.50;5.05;;;;;;;6.78;100.00;103945.22;5023994;28;20029;-59
2023/12/16 10:05:22;;;;;;;21.92;6.15;;;;;;;6.82;100.00;103940.78;5035080;28;20032;-58
2023/12/16 10:07:47;;;;;;;22.30;5.65;;;;;;;6.87;100.00;103938.97;5033396;28;20383;-59
2023/12/16 10:10:13;;;;;;;16.25;5.57;;;;;;;6.91;100.00;103945.97;5036573;28;20029;-59
2023/12/16 10:12:38;;;;;;;15.88;6.00;;;;;;;6.96;100.00;103948.53;5034959;28;20046;-59
2023/12/16 10:15:04;;;;;;;17.60;6.10;;;;;;;7.00;100.00;103948.50;5034571;28;20029;-59
2023/12/16 10:17:29;;;;;;;24.00;6.70;;;;;;;7.06;100.00;103936.09;5034838;28;20079;-58
2023/12/16 10:19:55;;;;;;;24.15;5.85;;;;;;;7.10;100.00;103946.63;5036849;28;20032;-59
2023/12/16 10:22:20;;;;;;;23.05;6.60;;;;;;;7.15;100.00;103938.66;5034451;28;20018;-58
2023/12/16 10:24:46;;;;;;;18.13;5.93;;;;;;;7.19;100.00;103941.25;5038289;28;20056;-59
2023/12/16 10:27:12;;;;;;;21.23;6.40;;;;;;;7.23;100.00;103948.22;5034651;28;20094;-59
2023/12/16 10:29:40;;;;;;;17.67;6.75;;;;;;;7.29;100.00;103946.38;5038633;28;20030;-58
2023/12/16 10:32:12;;;;;;;25.85;7.07;;;;;;;7.33;100.00;103942.81;5037305;28;20022;-59
2023/12/16 10:34:38;;;;;;;18.52;6.80;;;;;;;7.36;100.00;103950.69;5037472;28;20497;-59
2023/12/16 10:37:07;;;;;;;20.17;6.75;;;;;;;7.39;100.00;103948.00;5032496;28;20029;-58
2023/12/16 10:39:33;;;;;;;;;;;;;;;7.45;100.00;103941.78;5033874;28;20094;-58
2023/12/16 10:41:58;;;;;;;16.63;6.15;;;;;;;7.46;100.00;103941.78;5032305;28;20290;-59
2023/12/16 10:44:24;;;;;;;18.60;6.43;;;;;;;7.49;100.00;103931.13;5033998;28;20029;-59
2023/12/16 10:46:56;;;;;;;20.92;7.00;;;;;;;7.52;100.00;103936.38;5035950;28;20639;-59
2023/12/16 10:49:28;;;;;;;26.65;7.57;;;;;;;7.56;100.00;103927.50;5037931;28;20401;-58
2023/12/16 10:52:02;;;;;;;22.88;7.32;;;;;;;7.58;100.00;103938.06;5030247;28;20083;-59
2023/12/16 10:54:36;;;;;;;21.90;6.93;;;;;;;7.63;100.00;103933.59;5029928;28;20053;-59
2023/12/16 10:57:24;;;;;;;20.83;6.50;;;;;;;7.66;100.00;103932.66;5035518;28;20029;-59
2023/12/16 11:00:01;;;;;;;18.65;7.10;;;;;;;7.69;100.00;103922.03;5031804;28;20033;-59
2023/12/16 11:02:28;;;;;;;18.63;6.32;;;;;;;7.71;100.00;103922.88;5033853;28;20057;-59
2023/12/16 11:05:36;;;;;;;24.48;7.25;;;;;;;7.73;100.00;103918.47;5041709;28;20075;-59
2023/12/16 11:08:02;;;;;;;18.27;6.60;;;;;;;7.75;100.00;103917.53;5035659;28;20064;-59
2023/12/16 11:10:29;;;;;;;22.08;6.53;;;;;;;7.78;100.00;103919.25;5038628;28;20029;-59
2023/12/16 11:12:55;;;;;;;26.42;7.10;;;;;;;7.78;100.00;103912.19;5039816;28;20082;-58
2023/12/16 11:15:21;;;;;;;20.70;7.05;;;;;;;7.83;100.00;103911.22;5040293;28;20057;-59